sensor_id;sensor_type;location;lat;lon;timestamp;pressure;altitude;pressure_sealevel;temperature;humidity
36538;BME280;22545;48.892;9.138;2022-09-14T00:00:26;97165.03;;;20.31;100.00
36538;BME280;22545;48.892;9.138;2022-09-14T00:02:53;97161.97;;;20.36;100.00
36538;BME280;22545;48.892;9.138;2022-09-14T00:05:18;97160.47;;;20.33;100.00
36538;BME280;22545;48.892;9.138;2022-09-14T00:07:43;97156.47;;;20.39;100.00
36538;BME280;22545;48.892;9.138;2022-09-14T00:10:08;97159.91;;;20.39;100.00
36538;BME280;22545;48.892;9.138;2022-09-14T00:12:34;97151.69;;;20.34;100.00
36538;BME280;22545;48.892;9.138;2022-09-14T00:14:59;97154.13;;;20.45;100.00
36538;BME280;22545;48.892;9.138;2022-09-14T00:17:24;97150.25;;;20.49;100.00
36538;BME280;22545;48.892;9.138;2022-09-14T00:19:50;97147.38;;;20.52;100.00
36538;BME280;22545;48.892;9.138;2022-09-14T00:22:16;97149.06;;;20.34;100.00
36538;BME280;22545;48.892;9.138;2022-09-14T00:24:41;97152.91;;;20.30;100.00
36538;BME280;22545;48.892;9.138;2022-09-14T00:27:06;97138.53;;;20.16;100.00
36538;BME280;22545;48.892;9.138;2022-09-14T00:29:32;97130.84;;;20.14;100.00
36538;BME280;22545;48.892;9.138;2022-09-14T00:31:57;97119.16;;;20.09;100.00
36538;BME280;22545;48.892;9.138;2022-09-14T00:34:23;97123.69;;;20.07;100.00
36538;BME280;22545;48.892;9.138;2022-09-14T00:36:49;97118.19;;;20.00;100.00
36538;BME280;22545;48.892;9.138;2022-09-14T00:39:15;97120.94;;;20.08;100.00
36538;BME280;22545;48.892;9.138;2022-09-14T00:41:42;97116.94;;;20.14;100.00
36538;BME280;22545;48.892;9.138;2022-09-14T00:46:40;97114.50;;;19.93;100.00
36538;BME280;22545;48.892;9.138;2022-09-14T00:49:07;97101.59;;;19.91;100.00
36538;BME280;22545;48.892;9.138;2022-09-14T00:51:33;97105.31;;;19.89;100.00
36538;BME280;22545;48.892;9.138;2022-09-14T00:54:02;97103.81;;;19.86;100.00
36538;BME280;22545;48.892;9.138;2022-09-14T00:56:28;97092.13;;;19.90;100.00
36538;BME280;22545;48.892;9.138;2022-09-14T00:58:53;97095.66;;;19.99;100.00
36538;BME280;22545;48.892;9.138;2022-09-14T01:01:19;97090.16;;;20.02;100.00
36538;BME280;22545;48.892;9.138;2022-09-14T01:03:44;97091.69;;;20.05;100.00
36538;BME280;22545;48.892;9.138;2022-09-14T01:14:16;97057.88;;;20.03;100.00
36538;BME280;22545;48.892;9.138;2022-09-14T01:16:46;97060.50;;;20.03;100.00
36538;BME280;22545;48.892;9.138;2022-09-14T01:19:16;97045.69;;;19.94;100.00
36538;BME280;22545;48.892;9.138;2022-09-14T01:21:46;97042.69;;;19.69;100.00
36538;BME280;22545;48.892;9.138;2022-09-14T01:24:19;97038.56;;;19.67;100.00
36538;BME280;22545;48.892;9.138;2022-09-14T01:32:14;97090.16;;;20.02;100.00
36538;BME280;22545;48.892;9.138;2022-09-14T01:34:47;97141.56;;;19.92;100.00
36538;BME280;22545;48.892;9.138;2022-09-14T01:37:19;97149.22;;;19.64;100.00
36538;BME280;22545;48.892;9.138;2022-09-14T01:39:50;97156.63;;;19.59;100.00
36538;BME280;22545;48.892;9.138;2022-09-14T01:42:18;97164.28;;;19.51;100.00
36538;BME280;22545;48.892;9.138;2022-09-14T01:44:46;97170.34;;;19.51;100.00
36538;BME280;22545;48.892;9.138;2022-09-14T01:47:15;97133.94;;;19.40;100.00
36538;BME280;22545;48.892;9.138;2022-09-14T01:49:45;97132.69;;;19.34;100.00
36538;BME280;22545;48.892;9.138;2022-09-14T01:52:17;97146.41;;;19.17;100.00
36538;BME280;22545;48.892;9.138;2022-09-14T01:54:47;97148.69;;;19.00;100.00
36538;BME280;22545;48.892;9.138;2022-09-14T01:57:22;97154.94;;;18.88;100.00
36538;BME280;22545;48.892;9.138;2022-09-14T01:59:50;97161.50;;;18.61;100.00
36538;BME280;22545;48.892;9.138;2022-09-14T02:05:05;97170.16;;;18.40;100.00
36538;BME280;22545;48.892;9.138;2022-09-14T02:07:32;97177.31;;;18.48;100.00
36538;BME280;22545;48.892;9.138;2022-09-14T02:09:57;97178.44;;;18.25;100.00
36538;BME280;22545;48.892;9.138;2022-09-14T02:12:23;97158.69;;;18.22;100.00
36538;BME280;22545;48.892;9.138;2022-09-14T02:14:49;97165.66;;;18.21;100.00
36538;BME280;22545;48.892;9.138;2022-09-14T02:17:15;97164.56;;;18.24;100.00
36538;BME280;22545;48.892;9.138;2022-09-14T02:19:43;97164.31;;;18.27;100.00
36538;BME280;22545;48.892;9.138;2022-09-14T02:22:10;97166.03;;;18.38;100.00
36538;BME280;22545;48.892;9.138;2022-09-14T02:24:36;97153.41;;;18.33;100.00
36538;BME280;22545;48.892;9.138;2022-09-14T02:27:01;97146.72;;;18.40;100.00
36538;BME280;22545;48.892;9.138;2022-09-14T02:29:27;97147.50;;;18.31;100.00
36538;BME280;22545;48.892;9.138;2022-09-14T02:41:48;97152.97;;;18.28;100.00
36538;BME280;22545;48.892;9.138;2022-09-14T02:54:42;97130.50;;;18.06;100.00
36538;BME280;22545;48.892;9.138;2022-09-14T02:57:11;97134.13;;;18.15;100.00
36538;BME280;22545;48.892;9.138;2022-09-14T02:59:37;97124.59;;;18.04;100.00
36538;BME280;22545;48.892;9.138;2022-09-14T03:02:02;97124.97;;;17.99;100.00
36538;BME280;22545;48.892;9.138;2022-09-14T03:04:27;97122.50;;;17.98;100.00
36538;BME280;22545;48.892;9.138;2022-09-14T03:06:52;97108.34;;;18.12;100.00
36538;BME280;22545;48.892;9.138;2022-09-14T03:09:18;97114.88;;;18.06;100.00
36538;BME280;22545;48.892;9.138;2022-09-14T03:11:43;97115.06;;;17.93;100.00
36538;BME280;22545;48.892;9.138;2022-09-14T03:14:09;97105.97;;;17.87;100.00
36538;BME280;22545;48.892;9.138;2022-09-14T03:16:35;97107.22;;;17.72;100.00
36538;BME280;22545;48.892;9.138;2022-09-14T03:19:00;97096.69;;;17.74;100.00
36538;BME280;22545;48.892;9.138;2022-09-14T03:21:26;97096.59;;;17.64;100.00
36538;BME280;22545;48.892;9.138;2022-09-14T03:23:51;97094.25;;;17.61;100.00
36538;BME280;22545;48.892;9.138;2022-09-14T03:26:19;97092.41;;;17.51;100.00
36538;BME280;22545;48.892;9.138;2022-09-14T03:28:51;97095.25;;;17.48;100.00
36538;BME280;22545;48.892;9.138;2022-09-14T03:31:17;97092.53;;;17.50;100.00
36538;BME280;22545;48.892;9.138;2022-09-14T03:33:43;97083.81;;;17.40;100.00
36538;BME280;22545;48.892;9.138;2022-09-14T03:36:18;97026.81;;;16.94;100.00
36538;BME280;22545;48.892;9.138;2022-09-14T03:38:48;97078.25;;;17.12;100.00
36538;BME280;22545;48.892;9.138;2022-09-14T03:41:13;97086.88;;;17.12;100.00
36538;BME280;22545;48.892;9.138;2022-09-14T03:43:39;97077.09;;;17.05;100.00
36538;BME280;22545;48.892;9.138;2022-09-14T03:46:09;97087.22;;;17.08;100.00
36538;BME280;22545;48.892;9.138;2022-09-14T03:48:35;97083.09;;;17.05;100.00
36538;BME280;22545;48.892;9.138;2022-09-14T03:51:00;97087.84;;;17.00;100.00
36538;BME280;22545;48.892;9.138;2022-09-14T03:53:25;97094.22;;;17.07;100.00
36538;BME280;22545;48.892;9.138;2022-09-14T03:55:51;97077.78;;;17.07;100.00
36538;BME280;22545;48.892;9.138;2022-09-14T03:58:16;97072.09;;;17.13;100.00
36538;BME280;22545;48.892;9.138;2022-09-14T04:00:42;97074.06;;;17.21;100.00
36538;BME280;22545;48.892;9.138;2022-09-14T04:03:07;97069.97;;;17.18;100.00
36538;BME280;22545;48.892;9.138;2022-09-14T04:05:32;97062.28;;;17.16;100.00
36538;BME280;22545;48.892;9.138;2022-09-14T04:07:58;97057.91;;;17.17;100.00
36538;BME280;22545;48.892;9.138;2022-09-14T04:10:23;97040.22;;;17.11;100.00
36538;BME280;22545;48.892;9.138;2022-09-14T04:12:49;97042.56;;;17.14;100.00
36538;BME280;22545;48.892;9.138;2022-09-14T04:15:14;97035.47;;;17.16;100.00
36538;BME280;22545;48.892;9.138;2022-09-14T04:17:39;97027.34;;;17.09;100.00
36538;BME280;22545;48.892;9.138;2022-09-14T04:20:05;97042.13;;;17.09;100.00
36538;BME280;22545;48.892;9.138;2022-09-14T04:22:30;97045.09;;;17.04;100.00
36538;BME280;22545;48.892;9.138;2022-09-14T04:24:55;97045.91;;;17.05;100.00
36538;BME280;22545;48.892;9.138;2022-09-14T04:27:20;97057.72;;;17.09;100.00
36538;BME280;22545;48.892;9.138;2022-09-14T04:29:47;97036.34;;;17.05;100.00
36538;BME280;22545;48.892;9.138;2022-09-14T04:32:12;97041.41;;;17.07;100.00
36538;BME280;22545;48.892;9.138;2022-09-14T04:34:38;97044.81;;;17.19;100.00
36538;BME280;22545;48.892;9.138;2022-09-14T04:37:03;97035.47;;;17.16;100.00
36538;BME280;22545;48.892;9.138;2022-09-14T04:39:28;97035.56;;;17.26;100.00
36538;BME280;22545;48.892;9.138;2022-09-14T04:41:54;97032.59;;;17.30;100.00
36538;BME280;22545;48.892;9.138;2022-09-14T04:44:19;97048.56;;;17.26;100.00
36538;BME280;22545;48.892;9.138;2022-09-14T04:46:44;97054.56;;;17.26;100.00
36538;BME280;22545;48.892;9.138;2022-09-14T04:49:10;97041.59;;;17.26;100.00
36538;BME280;22545;48.892;9.138;2022-09-14T04:51:35;97046.78;;;17.26;100.00
36538;BME280;22545;48.892;9.138;2022-09-14T04:54:01;97049.97;;;17.30;100.00
36538;BME280;22545;48.892;9.138;2022-09-14T04:56:27;97053.38;;;17.30;100.00
36538;BME280;22545;48.892;9.138;2022-09-14T04:58:54;97053.56;;;17.39;100.00
36538;BME280;22545;48.892;9.138;2022-09-14T05:01:24;97085.63;;;17.39;100.00
36538;BME280;22545;48.892;9.138;2022-09-14T05:03:50;97112.78;;;17.35;100.00
36538;BME280;22545;48.892;9.138;2022-09-14T05:06:16;97114.25;;;17.05;100.00
36538;BME280;22545;48.892;9.138;2022-09-14T05:08:42;97092.44;;;17.08;100.00
36538;BME280;22545;48.892;9.138;2022-09-14T05:11:08;97097.47;;;17.21;100.00
36538;BME280;22545;48.892;9.138;2022-09-14T05:13:35;97105.16;;;17.11;100.00
36538;BME280;22545;48.892;9.138;2022-09-14T05:18:31;97108.94;;;17.07;100.00
36538;BME280;22545;48.892;9.138;2022-09-14T05:20:59;97086.75;;;17.14;100.00
36538;BME280;22545;48.892;9.138;2022-09-14T05:23:24;97081.47;;;17.04;100.00
36538;BME280;22545;48.892;9.138;2022-09-14T05:25:53;97091.00;;;17.04;100.00
36538;BME280;22545;48.892;9.138;2022-09-14T05:28:18;97077.53;;;17.10;100.00
36538;BME280;22545;48.892;9.138;2022-09-14T05:30:43;97090.75;;;17.07;100.00
36538;BME280;22545;48.892;9.138;2022-09-14T05:33:08;97092.50;;;17.29;100.00
36538;BME280;22545;48.892;9.138;2022-09-14T05:35:34;97091.19;;;17.34;100.00
36538;BME280;22545;48.892;9.138;2022-09-14T05:37:59;97091.72;;;17.49;100.00
36538;BME280;22545;48.892;9.138;2022-09-14T05:40:24;97094.88;;;17.53;100.00
36538;BME280;22545;48.892;9.138;2022-09-14T05:42:49;97082.66;;;17.65;100.00
36538;BME280;22545;48.892;9.138;2022-09-14T05:45:15;97083.47;;;17.65;100.00
36538;BME280;22545;48.892;9.138;2022-09-14T05:47:40;97081.53;;;17.79;100.00
36538;BME280;22545;48.892;9.138;2022-09-14T05:50:05;97080.38;;;17.72;100.00
36538;BME280;22545;48.892;9.138;2022-09-14T05:52:32;97082.09;;;17.82;100.00
36538;BME280;22545;48.892;9.138;2022-09-14T05:54:57;97070.88;;;17.82;100.00
36538;BME280;22545;48.892;9.138;2022-09-14T05:57:22;97065.94;;;17.79;100.00
36538;BME280;22545;48.892;9.138;2022-09-14T05:59:48;97064.41;;;17.76;100.00
36538;BME280;22545;48.892;9.138;2022-09-14T06:02:13;97062.47;;;17.90;100.00
36538;BME280;22545;48.892;9.138;2022-09-14T06:04:38;97058.13;;;17.79;100.00
36538;BME280;22545;48.892;9.138;2022-09-14T06:07:03;97047.47;;;17.82;100.00
36538;BME280;22545;48.892;9.138;2022-09-14T06:09:28;97051.00;;;17.92;100.00
36538;BME280;22545;48.892;9.138;2022-09-14T06:11:54;97060.25;;;18.06;100.00
36538;BME280;22545;48.892;9.138;2022-09-14T06:14:19;97073.88;;;18.19;100.00
36538;BME280;22545;48.892;9.138;2022-09-14T06:16:45;97066.63;;;18.23;100.00
36538;BME280;22545;48.892;9.138;2022-09-14T06:19:10;97066.28;;;18.37;100.00
36538;BME280;22545;48.892;9.138;2022-09-14T06:21:38;97060.56;;;18.44;100.00
36538;BME280;22545;48.892;9.138;2022-09-14T06:24:03;97057.78;;;18.35;100.00
36538;BME280;22545;48.892;9.138;2022-09-14T06:26:28;97058.75;;;18.34;100.00
36538;BME280;22545;48.892;9.138;2022-09-14T06:28:54;97059.78;;;18.22;100.00
36538;BME280;22545;48.892;9.138;2022-09-14T06:31:19;97054.50;;;18.12;100.00
36538;BME280;22545;48.892;9.138;2022-09-14T06:33:47;97051.78;;;18.14;100.00
36538;BME280;22545;48.892;9.138;2022-09-14T06:36:13;97048.53;;;18.21;100.00
36538;BME280;22545;48.892;9.138;2022-09-14T06:38:39;97061.91;;;18.38;100.00
36538;BME280;22545;48.892;9.138;2022-09-14T06:41:05;97064.16;;;18.52;100.00
36538;BME280;22545;48.892;9.138;2022-09-14T06:43:33;97056.00;;;18.67;100.00
36538;BME280;22545;48.892;9.138;2022-09-14T06:46:00;97054.50;;;18.74;100.00
36538;BME280;22545;48.892;9.138;2022-09-14T06:48:26;97061.50;;;18.73;100.00
36538;BME280;22545;48.892;9.138;2022-09-14T06:50:52;97055.63;;;18.81;100.00
36538;BME280;22545;48.892;9.138;2022-09-14T06:53:17;97054.44;;;18.95;100.00
36538;BME280;22545;48.892;9.138;2022-09-14T06:55:42;97049.25;;;19.05;100.00
36538;BME280;22545;48.892;9.138;2022-09-14T06:58:09;97046.66;;;19.05;100.00
36538;BME280;22545;48.892;9.138;2022-09-14T07:00:34;97046.81;;;19.33;100.00
36538;BME280;22545;48.892;9.138;2022-09-14T07:03:00;97035.53;;;19.42;100.00
36538;BME280;22545;48.892;9.138;2022-09-14T07:05:25;97040.50;;;19.55;100.00
36538;BME280;22545;48.892;9.138;2022-09-14T07:07:50;97037.63;;;19.77;100.00
36538;BME280;22545;48.892;9.138;2022-09-14T07:10:17;97038.81;;;20.03;100.00
36538;BME280;22545;48.892;9.138;2022-09-14T07:12:42;97048.94;;;20.53;100.00
36538;BME280;22545;48.892;9.138;2022-09-14T07:15:07;97043.72;;;21.27;100.00
36538;BME280;22545;48.892;9.138;2022-09-14T07:17:33;97041.28;;;22.40;100.00
36538;BME280;22545;48.892;9.138;2022-09-14T07:20:01;97048.97;;;22.68;100.00
36538;BME280;22545;48.892;9.138;2022-09-14T07:22:26;97055.25;;;22.49;100.00
36538;BME280;22545;48.892;9.138;2022-09-14T07:24:51;97063.47;;;22.27;100.00
36538;BME280;22545;48.892;9.138;2022-09-14T07:27:17;97061.94;;;22.43;100.00
36538;BME280;22545;48.892;9.138;2022-09-14T07:29:42;97061.25;;;21.88;100.00
36538;BME280;22545;48.892;9.138;2022-09-14T07:32:07;97055.78;;;22.00;100.00
36538;BME280;22545;48.892;9.138;2022-09-14T07:34:32;97055.81;;;22.08;100.00
36538;BME280;22545;48.892;9.138;2022-09-14T07:36:58;97058.97;;;22.12;100.00
36538;BME280;22545;48.892;9.138;2022-09-14T07:39:24;97062.66;;;22.27;100.00
36538;BME280;22545;48.892;9.138;2022-09-14T07:41:49;97066.66;;;22.39;100.00
36538;BME280;22545;48.892;9.138;2022-09-14T07:44:15;97063.09;;;22.40;100.00
36538;BME280;22545;48.892;9.138;2022-09-14T07:46:41;97059.63;;;22.40;100.00
36538;BME280;22545;48.892;9.138;2022-09-14T07:49:07;97066.59;;;22.57;100.00
36538;BME280;22545;48.892;9.138;2022-09-14T07:51:33;97065.22;;;22.88;100.00
36538;BME280;22545;48.892;9.138;2022-09-14T07:53:59;97065.34;;;22.35;100.00
36538;BME280;22545;48.892;9.138;2022-09-14T07:56:25;97073.19;;;22.35;100.00
36538;BME280;22545;48.892;9.138;2022-09-14T07:58:54;97078.44;;;22.35;100.00
36538;BME280;22545;48.892;9.138;2022-09-14T08:01:21;97079.47;;;22.77;100.00
36538;BME280;22545;48.892;9.138;2022-09-14T08:03:50;97072.78;;;23.58;100.00
36538;BME280;22545;48.892;9.138;2022-09-14T08:06:22;97082.28;;;24.09;100.00
36538;BME280;22545;48.892;9.138;2022-09-14T08:08:48;97081.94;;;24.36;100.00
36538;BME280;22545;48.892;9.138;2022-09-14T08:11:15;97089.59;;;24.63;100.00
36538;BME280;22545;48.892;9.138;2022-09-14T08:13:41;97091.16;;;24.16;100.00
36538;BME280;22545;48.892;9.138;2022-09-14T08:16:07;97101.00;;;23.81;100.00
36538;BME280;22545;48.892;9.138;2022-09-14T08:18:33;97103.75;;;23.46;100.00
36538;BME280;22545;48.892;9.138;2022-09-14T08:21:03;97099.66;;;23.36;100.00
36538;BME280;22545;48.892;9.138;2022-09-14T08:23:29;97114.03;;;23.15;100.00
36538;BME280;22545;48.892;9.138;2022-09-14T08:25:54;97113.41;;;22.87;100.00
36538;BME280;22545;48.892;9.138;2022-09-14T08:28:19;97118.94;;;22.84;100.00
36538;BME280;22545;48.892;9.138;2022-09-14T08:30:45;97121.94;;;22.54;100.00
36538;BME280;22545;48.892;9.138;2022-09-14T08:33:10;97124.50;;;22.72;100.00
36538;BME280;22545;48.892;9.138;2022-09-14T08:35:40;97128.22;;;22.70;100.00
36538;BME280;22545;48.892;9.138;2022-09-14T08:38:06;97134.59;;;23.02;100.00
36538;BME280;22545;48.892;9.138;2022-09-14T08:40:31;97134.44;;;23.03;100.00
36538;BME280;22545;48.892;9.138;2022-09-14T08:42:56;97121.59;;;23.26;100.00
36538;BME280;22545;48.892;9.138;2022-09-14T08:45:22;97128.53;;;23.60;100.00
36538;BME280;22545;48.892;9.138;2022-09-14T08:47:48;97140.56;;;23.71;100.00
36538;BME280;22545;48.892;9.138;2022-09-14T08:50:18;97148.63;;;23.94;100.00
36538;BME280;22545;48.892;9.138;2022-09-14T08:52:45;97162.13;;;23.48;100.00
36538;BME280;22545;48.892;9.138;2022-09-14T08:58:42;97172.41;;;23.17;100.00
36538;BME280;22545;48.892;9.138;2022-09-14T09:00:40;97161.72;;;23.10;100.00
36538;BME280;22545;48.892;9.138;2022-09-14T09:11:16;97133.84;;;24.26;100.00
36538;BME280;22545;48.892;9.138;2022-09-14T09:13:43;97139.00;;;25.78;100.00
36538;BME280;22545;48.892;9.138;2022-09-14T09:16:09;97133.47;;;27.39;100.00
36538;BME280;22545;48.892;9.138;2022-09-14T09:18:44;97133.75;;;28.37;100.00
36538;BME280;22545;48.892;9.138;2022-09-14T09:23:38;97142.13;;;29.99;100.00
36538;BME280;22545;48.892;9.138;2022-09-14T09:26:05;97141.94;;;30.07;100.00
36538;BME280;22545;48.892;9.138;2022-09-14T09:28:31;97143.91;;;29.03;100.00
36538;BME280;22545;48.892;9.138;2022-09-14T09:30:59;97156.03;;;28.84;100.00
36538;BME280;22545;48.892;9.138;2022-09-14T09:33:26;97147.25;;;28.20;100.00
36538;BME280;22545;48.892;9.138;2022-09-14T09:35:52;97134.41;;;27.74;100.00
36538;BME280;22545;48.892;9.138;2022-09-14T09:38:19;97130.00;;;28.03;100.00
36538;BME280;22545;48.892;9.138;2022-09-14T09:40:53;97119.47;;;29.63;100.00
36538;BME280;22545;48.892;9.138;2022-09-14T09:43:20;97106.88;;;29.98;100.00
36538;BME280;22545;48.892;9.138;2022-09-14T09:48:11;97113.38;;;30.09;100.00
36538;BME280;22545;48.892;9.138;2022-09-14T09:50:37;97115.44;;;30.14;100.00
36538;BME280;22545;48.892;9.138;2022-09-14T09:53:12;97108.25;;;30.61;100.00
36538;BME280;22545;48.892;9.138;2022-09-14T09:55:39;97101.72;;;29.70;100.00
36538;BME280;22545;48.892;9.138;2022-09-14T10:00:53;97085.88;;;31.41;100.00
36538;BME280;22545;48.892;9.138;2022-09-14T10:03:26;97082.53;;;31.59;100.00
36538;BME280;22545;48.892;9.138;2022-09-14T10:05:59;97072.75;;;32.03;100.00
36538;BME280;22545;48.892;9.138;2022-09-14T10:08:26;97073.38;;;32.05;97.50
36538;BME280;22545;48.892;9.138;2022-09-14T10:10:51;97062.47;;;32.14;95.18
36538;BME280;22545;48.892;9.138;2022-09-14T10:13:19;97062.34;;;32.27;96.82
36538;BME280;22545;48.892;9.138;2022-09-14T10:15:46;97060.06;;;30.58;100.00
36538;BME280;22545;48.892;9.138;2022-09-14T10:20:42;97065.41;;;28.40;100.00
36538;BME280;22545;48.892;9.138;2022-09-14T10:25:39;97053.31;;;27.75;100.00
36538;BME280;22545;48.892;9.138;2022-09-14T10:28:15;97050.56;;;26.81;100.00
36538;BME280;22545;48.892;9.138;2022-09-14T10:30:44;97048.81;;;26.74;100.00
36538;BME280;22545;48.892;9.138;2022-09-14T10:33:13;97044.94;;;26.40;100.00
36538;BME280;22545;48.892;9.138;2022-09-14T10:40:51;97029.41;;;25.92;100.00
36538;BME280;22545;48.892;9.138;2022-09-14T10:43:32;97019.09;;;26.05;100.00
36538;BME280;22545;48.892;9.138;2022-09-14T10:46:02;97015.09;;;26.54;100.00
36538;BME280;22545;48.892;9.138;2022-09-14T10:48:38;97007.66;;;26.28;100.00
36538;BME280;22545;48.892;9.138;2022-09-14T10:53:59;97002.03;;;26.31;100.00
36538;BME280;22545;48.892;9.138;2022-09-14T10:56:32;97000.66;;;26.50;100.00
36538;BME280;22545;48.892;9.138;2022-09-14T10:59:15;96989.09;;;26.51;100.00
36538;BME280;22545;48.892;9.138;2022-09-14T11:07:14;96982.38;;;26.48;100.00
36538;BME280;22545;48.892;9.138;2022-09-14T11:09:51;96972.91;;;26.54;100.00
36538;BME280;22545;48.892;9.138;2022-09-14T11:12:25;96977.13;;;26.85;100.00
36538;BME280;22545;48.892;9.138;2022-09-14T11:20:42;96971.38;;;26.96;100.00
36538;BME280;22545;48.892;9.138;2022-09-14T11:25:46;96896.75;;;26.81;100.00
36538;BME280;22545;48.892;9.138;2022-09-14T11:28:18;96974.03;;;27.40;100.00
36538;BME280;22545;48.892;9.138;2022-09-14T11:30:55;96969.94;;;26.94;100.00
36538;BME280;22545;48.892;9.138;2022-09-14T11:35:58;96963.16;;;26.84;100.00
36538;BME280;22545;48.892;9.138;2022-09-14T11:38:29;96960.63;;;26.61;100.00
36538;BME280;22545;48.892;9.138;2022-09-14T11:43:26;96970.88;;;26.20;100.00
36538;BME280;22545;48.892;9.138;2022-09-14T11:46:05;96955.19;;;26.33;100.00
36538;BME280;22545;48.892;9.138;2022-09-14T11:48:36;96889.47;;;26.10;100.00
36538;BME280;22545;48.892;9.138;2022-09-14T11:51:14;96960.13;;;26.36;100.00
36538;BME280;22545;48.892;9.138;2022-09-14T11:53:41;96954.16;;;26.64;100.00
36538;BME280;22545;48.892;9.138;2022-09-14T11:56:14;96950.38;;;26.52;100.00
36538;BME280;22545;48.892;9.138;2022-09-14T11:58:47;96956.97;;;26.26;100.00
36538;BME280;22545;48.892;9.138;2022-09-14T12:01:23;96963.53;;;26.15;100.00
36538;BME280;22545;48.892;9.138;2022-09-14T12:03:56;96956.84;;;26.34;100.00
36538;BME280;22545;48.892;9.138;2022-09-14T12:11:45;96962.50;;;26.31;100.00
36538;BME280;22545;48.892;9.138;2022-09-14T12:14:33;96964.72;;;25.89;100.00
36538;BME280;22545;48.892;9.138;2022-09-14T12:19:44;96966.66;;;25.95;100.00
36538;BME280;22545;48.892;9.138;2022-09-14T12:22:17;96969.41;;;26.02;100.00
36538;BME280;22545;48.892;9.138;2022-09-14T12:24:43;96969.78;;;25.99;100.00
36538;BME280;22545;48.892;9.138;2022-09-14T12:27:19;96965.44;;;25.68;100.00
36538;BME280;22545;48.892;9.138;2022-09-14T12:29:45;96967.63;;;25.65;100.00
36538;BME280;22545;48.892;9.138;2022-09-14T12:32:24;96968.22;;;25.37;100.00
36538;BME280;22545;48.892;9.138;2022-09-14T12:35:33;96975.44;;;25.35;100.00
36538;BME280;22545;48.892;9.138;2022-09-14T12:37:35;96979.19;;;25.17;100.00
36538;BME280;22545;48.892;9.138;2022-09-14T12:40:11;96992.56;;;25.07;100.00
36538;BME280;22545;48.892;9.138;2022-09-14T12:42:36;96987.41;;;24.91;100.00
36538;BME280;22545;48.892;9.138;2022-09-14T12:45:45;96992.38;;;24.86;100.00
36538;BME280;22545;48.892;9.138;2022-09-14T12:47:50;97004.47;;;24.64;100.00
36538;BME280;22545;48.892;9.138;2022-09-14T12:50:18;97000.69;;;24.66;100.00
36538;BME280;22545;48.892;9.138;2022-09-14T12:52:51;97007.16;;;24.47;100.00
36538;BME280;22545;48.892;9.138;2022-09-14T12:55:33;97006.75;;;24.27;100.00
36538;BME280;22545;48.892;9.138;2022-09-14T13:00:28;97012.06;;;23.78;100.00
36538;BME280;22545;48.892;9.138;2022-09-14T13:05:41;97008.50;;;22.70;100.00
36538;BME280;22545;48.892;9.138;2022-09-14T13:08:10;97023.53;;;22.25;100.00
36538;BME280;22545;48.892;9.138;2022-09-14T13:10:37;97026.13;;;21.99;100.00
36538;BME280;22545;48.892;9.138;2022-09-14T13:13:14;97025.75;;;21.68;100.00
36538;BME280;22545;48.892;9.138;2022-09-14T13:15:47;97049.03;;;21.71;100.00
36538;BME280;22545;48.892;9.138;2022-09-14T13:20:56;97066.94;;;21.48;100.00
36538;BME280;22545;48.892;9.138;2022-09-14T13:23:22;97074.34;;;21.34;100.00
36538;BME280;22545;48.892;9.138;2022-09-14T13:25:48;97077.09;;;21.15;100.00
36538;BME280;22545;48.892;9.138;2022-09-14T13:28:14;97077.00;;;21.07;100.00
36538;BME280;22545;48.892;9.138;2022-09-14T13:30:43;97074.91;;;21.10;100.00
36538;BME280;22545;48.892;9.138;2022-09-14T13:33:17;97094.22;;;21.09;100.00
36538;BME280;22545;48.892;9.138;2022-09-14T13:35:44;97084.59;;;21.00;100.00
36538;BME280;22545;48.892;9.138;2022-09-14T13:38:29;97094.03;;;20.93;100.00
36538;BME280;22545;48.892;9.138;2022-09-14T13:41:02;97087.38;;;20.71;100.00
36538;BME280;22545;48.892;9.138;2022-09-14T13:43:28;97081.41;;;20.88;100.00
36538;BME280;22545;48.892;9.138;2022-09-14T13:45:53;97074.41;;;20.79;100.00
36538;BME280;22545;48.892;9.138;2022-09-14T13:48:19;97082.72;;;20.55;100.00
36538;BME280;22545;48.892;9.138;2022-09-14T13:50:49;97078.81;;;20.78;100.00
36538;BME280;22545;48.892;9.138;2022-09-14T13:55:58;97066.75;;;20.95;100.00
36538;BME280;22545;48.892;9.138;2022-09-14T13:58:23;97051.69;;;21.07;100.00
36538;BME280;22545;48.892;9.138;2022-09-14T14:03:25;97044.25;;;20.84;100.00
36538;BME280;22545;48.892;9.138;2022-09-14T14:05:51;97030.91;;;21.06;100.00
36538;BME280;22545;48.892;9.138;2022-09-14T14:08:26;97037.56;;;21.18;100.00
36538;BME280;22545;48.892;9.138;2022-09-14T14:10:52;97027.66;;;21.39;100.00
36538;BME280;22545;48.892;9.138;2022-09-14T14:13:28;97014.72;;;21.38;100.00
36538;BME280;22545;48.892;9.138;2022-09-14T14:16:11;97014.94;;;21.45;100.00
36538;BME280;22545;48.892;9.138;2022-09-14T14:18:41;97012.25;;;21.36;100.00
36538;BME280;22545;48.892;9.138;2022-09-14T14:21:12;97007.91;;;21.27;100.00
36538;BME280;22545;48.892;9.138;2022-09-14T14:23:38;97004.63;;;21.43;100.00
36538;BME280;22545;48.892;9.138;2022-09-14T14:26:11;96999.84;;;21.38;100.00
36538;BME280;22545;48.892;9.138;2022-09-14T14:28:38;97010.91;;;21.32;100.00
36538;BME280;22545;48.892;9.138;2022-09-14T14:31:04;97018.31;;;21.55;100.00
36538;BME280;22545;48.892;9.138;2022-09-14T14:33:33;97018.31;;;21.55;100.00
36538;BME280;22545;48.892;9.138;2022-09-14T14:35:59;97027.25;;;21.70;100.00
36538;BME280;22545;48.892;9.138;2022-09-14T14:38:25;97026.91;;;21.47;100.00
36538;BME280;22545;48.892;9.138;2022-09-14T14:40:51;97030.03;;;21.33;100.00
36538;BME280;22545;48.892;9.138;2022-09-14T14:43:19;97043.66;;;21.36;100.00
36538;BME280;22545;48.892;9.138;2022-09-14T14:45:46;97049.84;;;21.35;100.00